.
WxDataArchive / Data Records for 2006-12-23
2006-12-22 December 2006 2006-12-24

Data Records for Saturday, 23 December 2006

Time	Temp	Chill	HIndex	Humid	Dewpt	 Wind 	HiWind	WindDir	Rain 	Barom 
-----	----	-----	------	-----	-----	------	------	-------	-----	----- 
00:00	43.6	43.6	43.6	79	37.5	2	5	248	0.00	29.786 
00:05	43.6	43.6	43.6	80	37.8	3	6	248	0.00	29.786 
00:10	43.6	43.6	43.6	80	37.8	3	7	248	0.00	29.786 
00:15	43.6	43.6	43.6	80	37.8	3	6	248	0.00	29.791 
00:20	43.6	41.5	43.6	80	37.8	4	7	248	0.00	29.791 
00:25	43.6	43.6	43.6	80	37.8	3	7	248	0.00	29.791 
00:30	43.5	43.5	43.5	80	37.7	2	6	248	0.00	29.790 
00:35	43.5	41.4	43.5	80	37.7	4	8	270	0.00	29.790 
00:40	43.5	43.5	43.5	81	38.1	3	10	248	0.00	29.790 
00:45	43.5	43.5	43.5	81	38.1	3	10	248	0.00	29.792 
00:50	43.6	41.5	43.6	81	38.2	4	9	248	0.00	29.792 
00:55	43.6	43.6	43.6	81	38.2	3	7	248	0.00	29.792 
01:00	43.6	41.5	43.6	80	37.8	4	9	248	0.00	29.791 
01:05	43.6	43.6	43.6	81	38.2	3	7	248	0.00	29.791 
01:10	43.6	43.6	43.6	81	38.2	3	8	248	0.00	29.791 
01:15	43.6	43.6	43.6	81	38.2	3	9	248	0.00	29.795 
01:20	43.6	40.7	43.6	81	38.2	5	11	248	0.00	29.795 
01:25	43.6	41.5	43.6	81	38.2	4	7	270	0.00	29.795 
01:30	43.6	41.5	43.6	80	37.8	4	12	248	0.00	29.799 
01:35	43.6	43.6	43.6	81	38.2	3	9	270	0.00	29.799 
01:40	43.6	43.6	43.6	81	38.2	3	7	248	0.00	29.799 
01:45	43.6	40.7	43.6	80	37.8	5	12	248	0.00	29.806 
01:50	43.6	40.7	43.6	80	37.8	5	12	248	0.00	29.806 
01:55	43.6	43.6	43.6	80	37.8	3	7	248	0.00	29.806 
02:00	43.6	41.5	43.6	79	37.5	4	11	270	0.00	29.809 
02:05	43.6	41.5	43.6	79	37.5	4	10	270	0.00	29.809 
02:10	43.6	43.6	43.6	80	37.8	3	9	270	0.00	29.809 
02:15	43.5	39.9	43.5	79	37.4	6	16	270	0.00	29.820 
02:20	43.5	43.5	43.5	79	37.4	3	10	270	0.00	29.820 
02:25	43.5	38.9	43.5	78	37.1	8	17	270	0.00	29.820 
02:30	43.5	40.6	43.5	79	37.4	5	13	270	0.00	29.825 
02:35	43.3	39.7	43.3	79	37.2	6	15	270	0.00	29.825 
02:40	43.2	40.2	43.2	77	36.5	5	14	248	0.00	29.825 
02:45	43.2	40.2	43.2	75	35.8	5	13	270	0.00	29.828 
02:50	43.2	41.0	43.2	76	36.2	4	11	270	0.00	29.828 
02:55	43.2	40.2	43.2	77	36.5	5	10	270	0.00	29.828 
03:00	43.1	43.1	43.1	77	36.4	3	7	270	0.00	29.831 
03:05	43.1	43.1	43.1	78	36.7	3	9	270	0.00	29.831 
03:10	42.9	42.9	42.9	78	36.5	3	7	270	0.00	29.831 
03:15	42.9	42.9	42.9	78	36.5	3	9	270	0.00	29.829 
03:20	42.9	40.7	42.9	78	36.5	4	9	270	0.00	29.829 
03:25	42.9	39.9	42.9	78	36.5	5	16	270	0.00	29.829 
03:30	42.9	40.7	42.9	78	36.5	4	12	248	0.00	29.827 
03:35	42.9	40.7	42.9	79	36.8	4	9	248	0.00	29.827 
03:40	42.9	39.9	42.9	79	36.8	5	12	270	0.00	29.827 
03:45	42.9	40.7	42.9	79	36.8	4	11	270	0.00	29.827 
03:50	42.9	40.7	42.9	79	36.8	4	11	270	0.00	29.827 
03:55	42.9	42.9	42.9	80	37.2	3	10	248	0.00	29.827 
04:00	42.9	39.2	42.9	80	37.2	6	14	270	0.00	29.825 
04:05	42.9	42.9	42.9	81	37.5	3	7	270	0.00	29.825 
04:10	42.8	40.6	42.8	81	37.4	4	12	270	0.00	29.825 
04:15	42.8	42.8	42.8	81	37.4	3	11	248	0.00	29.822 
04:20	42.8	40.6	42.8	81	37.4	4	12	248	0.00	29.822 
04:25	42.6	40.3	42.6	81	37.2	4	13	270	0.00	29.822 
04:30	42.8	40.6	42.8	81	37.4	4	8	270	0.00	29.814 
04:35	42.6	39.5	42.6	81	37.2	5	10	270	0.00	29.814 
04:40	42.6	40.3	42.6	81	37.2	4	13	248	0.00	29.814 
04:45	42.6	38.3	42.6	81	37.2	7	16	248	0.00	29.811 
04:50	42.6	40.3	42.6	81	37.2	4	10	270	0.00	29.811 
04:55	42.5	40.2	42.5	81	37.1	4	14	248	0.00	29.811 
05:00	42.5	42.5	42.5	81	37.1	3	6	248	0.00	29.812 
05:05	42.3	40.0	42.3	81	36.9	4	6	270	0.00	29.812 
05:10	42.3	40.0	42.3	81	36.9	4	14	270	0.00	29.812 
05:15	42.3	39.2	42.3	81	36.9	5	11	248	0.00	29.825 
05:20	42.3	40.0	42.3	81	36.9	4	10	270	0.00	29.825 
05:25	42.3	39.2	42.3	80	36.6	5	14	270	0.00	29.825 
05:30	42.3	38.5	42.3	80	36.6	6	14	270	0.00	29.829 
05:35	42.2	39.1	42.2	80	36.5	5	13	270	0.00	29.829 
05:40	42.1	39.7	42.1	79	36.1	4	15	270	0.00	29.829 
05:45	41.9	39.5	41.9	79	35.9	4	10	270	0.00	29.825 
05:50	41.9	38.7	41.9	80	36.2	5	11	270	0.00	29.825 
05:55	41.8	37.9	41.8	78	35.5	6	14	270	0.00	29.825 
06:00	41.6	37.7	41.6	77	34.9	6	16	270	0.00	29.835 
06:05	41.5	37.5	41.5	77	34.8	6	15	270	0.00	29.835 
06:10	41.5	37.5	41.5	77	34.8	6	15	270	0.00	29.835 
06:15	41.5	39.1	41.5	78	35.2	4	10	270	0.00	29.844 
06:20	41.5	38.2	41.5	78	35.2	5	13	270	0.00	29.844 
06:25	41.5	38.2	41.5	78	35.2	5	10	270	0.00	29.844 
06:30	41.5	39.1	41.5	78	35.2	4	12	270	0.00	29.849 
06:35	41.3	38.0	41.3	78	35.0	5	17	270	0.00	29.849 
06:40	41.3	38.0	41.3	78	35.0	5	15	270	0.00	29.849 
06:45	41.2	37.9	41.2	79	35.2	5	16	270	0.00	29.843 
06:50	41.2	38.7	41.2	80	35.5	4	12	270	0.00	29.843 
06:55	41.1	37.1	41.1	79	35.1	6	11	270	0.00	29.843 
07:00	41.1	36.5	41.1	77	34.4	7	19	270	0.01	29.846 
07:05	41.1	37.8	41.1	77	34.4	5	11	270	0.00	29.846 
07:10	41.1	37.1	41.1	77	34.4	6	14	270	0.00	29.846 
07:15	41.1	37.8	41.1	77	34.4	5	12	270	0.00	29.852 
07:20	41.1	38.6	41.1	77	34.4	4	10	270	0.00	29.852 
07:25	41.1	37.8	41.1	78	34.8	5	16	270	0.00	29.852 
07:30	41.1	38.6	41.1	78	34.8	4	12	270	0.00	29.855 
07:35	40.9	37.5	40.9	79	34.9	5	13	270	0.00	29.855 
07:40	40.9	36.8	40.9	79	34.9	6	14	270	0.00	29.855 
07:45	40.8	37.4	40.8	80	35.1	5	14	270	0.00	29.862 
07:50	40.8	37.4	40.8	80	35.1	5	12	270	0.00	29.862 
07:55	40.8	36.7	40.8	79	34.8	6	16	270	0.00	29.862 
08:00	40.8	37.4	40.8	79	34.8	5	11	270	0.00	29.862 
08:05	40.8	37.4	40.8	79	34.8	5	11	270	0.00	29.862 
08:10	40.6	36.5	40.6	80	34.9	6	14	270	0.00	29.862 
08:15	40.6	38.0	40.6	80	34.9	4	13	270	0.00	29.861 
08:20	40.5	35.7	40.5	84	36.1	7	14	270	0.00	29.861 
08:25	40.5	36.4	40.5	82	35.4	6	17	270	0.00	29.861 
08:30	40.3	36.1	40.3	81	34.9	6	17	270	0.00	29.868 
08:35	40.3	36.1	40.3	80	34.6	6	13	270	0.00	29.868 
08:40	40.3	35.0	40.3	79	34.3	8	18	270	0.00	29.868 
08:45	40.2	36.7	40.2	80	34.5	5	10	270	0.00	29.877 
08:50	40.1	36.6	40.1	80	34.4	5	13	270	0.00	29.877 
08:55	39.9	35.6	39.9	80	34.2	6	16	270	0.00	29.877 
09:00	39.9	36.4	39.9	80	34.2	5	14	270	0.00	29.872 
09:05	39.9	36.4	39.9	80	34.2	5	14	270	0.00	29.872 
09:10	39.9	36.4	39.9	80	34.2	5	16	270	0.00	29.872 
09:15	40.1	35.9	40.1	79	34.1	6	13	270	0.00	29.884 
09:20	40.1	36.6	40.1	80	34.4	5	13	270	0.00	29.884 
09:25	40.1	35.9	40.1	79	34.1	6	15	270	0.00	29.884 
09:30	40.1	35.9	40.1	79	34.1	6	16	270	0.00	29.885 
09:35	40.1	36.6	40.1	79	34.1	5	11	270	0.00	29.885 
09:40	40.1	35.3	40.1	79	34.1	7	18	248	0.00	29.885 
09:45	40.1	36.6	40.1	80	34.4	5	15	270	0.00	29.897 
09:50	40.1	35.9	40.1	80	34.4	6	15	270	0.00	29.897 
09:55	40.1	37.4	40.1	80	34.4	4	10	270	0.00	29.897 
10:00	40.1	36.6	40.1	80	34.4	5	12	270	0.00	29.905 
10:05	40.1	36.6	40.1	80	34.4	5	13	270	0.00	29.905 
10:10	40.1	36.6	40.1	79	34.1	5	15	270	0.00	29.905 
10:15	40.2	36.7	40.2	79	34.2	5	14	270	0.00	29.914 
10:20	40.2	37.5	40.2	80	34.5	4	11	270	0.00	29.914 
10:25	40.2	37.5	40.2	80	34.5	4	9	248	0.00	29.914 
10:30	40.1	37.4	40.1	80	34.4	4	13	270	0.00	29.917 
10:35	40.1	36.6	40.1	81	34.7	5	15	270	0.00	29.917 
10:40	40.1	36.6	40.1	79	34.1	5	15	270	0.00	29.917 
10:45	40.1	35.9	40.1	78	33.8	6	16	270	0.00	29.914 
10:50	40.1	35.9	40.1	78	33.8	6	14	270	0.00	29.914 
10:55	40.1	36.6	40.1	78	33.8	5	16	270	0.00	29.914 
11:00	39.9	36.4	39.9	78	33.6	5	13	270	0.00	29.920 
11:05	39.5	35.2	39.5	79	33.5	6	12	270	0.00	29.920 
11:10	39.1	34.1	39.1	79	33.1	7	17	270	0.00	29.920 
11:15	38.9	34.4	38.9	79	33.0	6	19	270	0.00	29.930 
11:20	38.9	34.4	38.9	79	33.0	6	13	270	0.00	29.930 
11:25	38.9	35.2	38.9	80	33.3	5	16	270	0.00	29.930 
11:30	38.8	33.7	38.8	79	32.9	7	16	270	0.00	29.931 
11:35	38.6	34.1	38.6	80	33.0	6	18	270	0.00	29.931 
11:40	38.6	34.1	38.6	80	33.0	6	16	270	0.00	29.931 
11:45	38.5	32.2	38.5	80	32.9	9	20	270	0.00	29.924 
11:50	38.5	33.3	38.5	80	32.9	7	17	270	0.00	29.924 
11:55	38.5	33.3	38.5	80	32.9	7	14	270	0.00	29.924 
12:00	38.5	34.0	38.5	81	33.2	6	12	270	0.00	29.922 
12:05	38.3	33.1	38.3	81	33.0	7	15	270	0.00	29.922 
12:10	38.3	33.7	38.3	81	33.0	6	17	270	0.00	29.922 
12:15	38.3	33.7	38.3	82	33.3	6	11	270	0.00	29.923 
12:20	38.2	33.6	38.2	82	33.2	6	16	270	0.00	29.923 
12:25	38.2	33.6	38.2	82	33.2	6	15	270	0.00	29.923 
12:30	38.3	33.7	38.3	82	33.3	6	14	270	0.00	29.918 
12:35	38.3	34.5	38.3	82	33.3	5	14	270	0.00	29.918 
12:40	38.2	34.4	38.2	83	33.5	5	11	270	0.00	29.918 
12:45	38.2	34.4	38.2	84	33.8	5	11	270	0.00	29.918 
12:50	38.2	35.2	38.2	84	33.8	4	16	270	0.00	29.918 
12:55	38.2	35.2	38.2	84	33.8	4	14	270	0.00	29.918 
13:00	38.2	35.2	38.2	84	33.8	4	15	270	0.00	29.920 
13:05	38.2	34.4	38.2	85	34.1	5	18	270	0.00	29.920 
13:10	38.2	34.4	38.2	85	34.1	5	11	270	0.00	29.920 
13:15	38.0	32.7	38.0	84	33.6	7	15	270	0.00	29.917 
13:20	37.9	33.3	37.9	83	33.2	6	17	270	0.00	29.917 
13:25	37.9	34.0	37.9	84	33.5	5	12	270	0.00	29.917 
13:30	37.9	33.3	37.9	84	33.5	6	17	270	0.00	29.916 
13:35	37.8	33.9	37.8	84	33.4	5	14	270	0.00	29.916 
13:40	37.8	32.5	37.8	83	33.1	7	21	270	0.00	29.916 
13:45	37.8	33.1	37.8	83	33.1	6	16	270	0.00	29.921 
13:50	37.8	33.1	37.8	83	33.1	6	14	270	0.00	29.921 
13:55	37.9	34.9	37.9	82	32.9	4	14	270	0.00	29.921 
14:00	37.9	34.9	37.9	82	32.9	4	13	270	0.00	29.919 
14:05	38.0	33.4	38.0	81	32.7	6	13	270	0.00	29.919 
14:10	38.0	35.0	38.0	82	33.0	4	11	270	0.00	29.919 
14:15	38.2	38.2	38.2	82	33.2	3	8	270	0.00	29.921 
14:20	38.2	34.4	38.2	83	33.5	5	12	270	0.00	29.921 
14:25	38.2	33.0	38.2	82	33.2	7	20	270	0.00	29.921 
14:30	38.2	34.4	38.2	82	33.2	5	15	270	0.00	29.922 
14:35	38.2	34.4	38.2	81	32.9	5	17	270	0.00	29.922 
14:40	38.2	33.6	38.2	82	33.2	6	17	270	0.00	29.922 
14:45	38.2	35.2	38.2	82	33.2	4	10	270	0.00	29.918 
14:50	38.2	34.4	38.2	82	33.2	5	12	270	0.00	29.918 
14:55	38.3	38.3	38.3	83	33.6	2	5	248	0.00	29.918 
15:00	38.3	38.3	38.3	83	33.6	3	10	270	0.00	29.919 
15:05	38.3	34.5	38.3	82	33.3	5	12	270	0.00	29.919 
15:10	38.5	34.7	38.5	82	33.5	5	11	270	0.00	29.919 
15:15	38.5	34.7	38.5	82	33.5	5	17	270	0.00	29.928 
15:20	38.5	38.5	38.5	82	33.5	3	7	270	0.00	29.928 
15:25	38.5	34.0	38.5	82	33.5	6	18	270	0.00	29.928 
15:30	38.5	34.0	38.5	82	33.5	6	13	270	0.00	29.929 
15:35	38.5	35.6	38.5	82	33.5	4	9	270	0.00	29.929 
15:40	38.5	34.7	38.5	82	33.5	5	15	270	0.00	29.929 
15:45	38.6	35.7	38.6	83	33.9	4	12	270	0.00	29.934 
15:50	38.5	35.6	38.5	83	33.8	4	10	270	0.00	29.934 
15:55	38.5	35.6	38.5	84	34.1	4	14	270	0.00	29.934 
16:00	38.5	35.6	38.5	83	33.8	4	7	270	0.00	29.936 
16:05	38.5	34.7	38.5	84	34.1	5	12	270	0.00	29.936 
16:10	38.5	35.6	38.5	84	34.1	4	10	270	0.00	29.936 
16:15	38.5	35.6	38.5	84	34.1	4	11	270	0.00	29.947 
16:20	38.5	35.6	38.5	84	34.1	4	9	270	0.00	29.947 
16:25	38.5	34.7	38.5	84	34.1	5	12	270	0.00	29.947 
16:30	38.5	35.6	38.5	84	34.1	4	12	270	0.00	29.949 
16:35	38.6	38.6	38.6	84	34.2	3	5	270	0.00	29.949 
16:40	38.5	35.6	38.5	84	34.1	4	9	270	0.00	29.949 
16:45	38.5	35.6	38.5	84	34.1	4	12	270	0.00	29.948 
16:50	38.5	35.6	38.5	84	34.1	4	12	270	0.00	29.948 
16:55	38.5	35.6	38.5	84	34.1	4	9	270	0.00	29.948 
17:00	38.5	35.6	38.5	84	34.1	4	10	270	0.00	29.957 
17:05	38.5	34.7	38.5	84	34.1	5	15	270	0.00	29.957 
17:10	38.5	38.5	38.5	84	34.1	3	6	270	0.00	29.957 
17:15	38.5	35.6	38.5	84	34.1	4	12	248	0.00	29.966 
17:20	38.5	35.6	38.5	85	34.4	4	14	270	0.00	29.966 
17:25	38.5	38.5	38.5	85	34.4	2	7	248	0.00	29.966 
17:30	38.5	38.5	38.5	85	34.4	2	7	270	0.00	29.970 
17:35	38.5	38.5	38.5	85	34.4	2	4	270	0.00	29.970 
17:40	38.5	38.5	38.5	85	34.4	2	4	248	0.00	29.970 
17:45	38.5	38.5	38.5	85	34.4	3	8	270	0.00	29.967 
17:50	38.5	35.6	38.5	85	34.4	4	11	270	0.00	29.967 
17:55	38.5	35.6	38.5	85	34.4	4	12	270	0.00	29.967 
18:00	38.3	35.4	38.3	85	34.2	4	9	270	0.00	29.972 
18:05	38.5	34.7	38.5	84	34.1	5	17	270	0.00	29.972 
18:10	38.5	38.5	38.5	84	34.1	3	10	270	0.00	29.972 
18:15	38.5	38.5	38.5	84	34.1	3	10	270	0.00	29.983 
18:20	38.5	38.5	38.5	84	34.1	2	6	248	0.00	29.983 
18:25	38.5	38.5	38.5	84	34.1	3	9	270	0.00	29.983 
18:30	38.5	38.5	38.5	84	34.1	3	9	248	0.00	29.991 
18:35	38.6	38.6	38.6	84	34.2	3	7	270	0.00	29.991 
18:40	38.6	35.7	38.6	83	33.9	4	11	270	0.00	29.991 
18:45	38.6	38.6	38.6	84	34.2	3	12	248	0.00	29.997 
18:50	38.6	38.6	38.6	84	34.2	3	7	270	0.00	29.997 
18:55	38.6	38.6	38.6	84	34.2	2	6	248	0.00	29.997 
19:00	38.6	38.6	38.6	84	34.2	3	9	270	0.00	29.998 
19:05	38.5	38.5	38.5	84	34.1	3	9	248	0.00	29.998 
19:10	38.6	38.6	38.6	84	34.2	3	7	270	0.00	29.998 
19:15	38.6	38.6	38.6	84	34.2	2	9	248	0.00	29.998 
19:20	38.6	38.6	38.6	84	34.2	3	7	270	0.00	29.998 
19:25	38.6	38.6	38.6	83	33.9	3	11	270	0.00	29.998 
19:30	38.6	38.6	38.6	84	34.2	3	7	248	0.00	29.999 
19:35	38.6	38.6	38.6	84	34.2	3	7	270	0.00	29.999 
19:40	38.6	38.6	38.6	84	34.2	3	10	270	0.00	29.999 
19:45	38.6	38.6	38.6	84	34.2	3	10	270	0.00	30.001 
19:50	38.6	35.7	38.6	84	34.2	4	10	248	0.00	30.001 
19:55	38.6	38.6	38.6	84	34.2	2	7	248	0.00	30.001 
20:00	38.6	38.6	38.6	84	34.2	3	7	270	0.00	30.002 
20:05	38.6	34.8	38.6	83	33.9	5	12	248	0.00	30.002 
20:10	38.8	38.8	38.8	83	34.1	2	6	248	0.00	30.002 
20:15	38.8	38.8	38.8	83	34.1	3	6	248	0.00	30.004 
20:20	38.8	38.8	38.8	84	34.4	3	10	248	0.00	30.004 
20:25	38.8	35.9	38.8	84	34.4	4	10	270	0.00	30.004 
20:30	38.8	35.9	38.8	84	34.4	4	11	270	0.00	30.001 
20:35	38.6	35.7	38.6	84	34.2	4	9	248	0.00	30.001 
20:40	38.8	38.8	38.8	85	34.7	3	9	270	0.00	30.001 
20:45	38.8	38.8	38.8	85	34.7	3	9	270	0.00	30.001 
20:50	38.6	38.6	38.6	85	34.5	3	8	270	0.00	30.001 
20:55	38.6	38.6	38.6	86	34.8	3	9	270	0.00	30.001 
21:00	38.6	38.6	38.6	86	34.8	3	9	270	0.00	30.007 
21:05	38.6	38.6	38.6	87	35.1	3	6	270	0.00	30.007 
21:10	38.5	38.5	38.5	87	35.0	3	7	270	0.00	30.007 
21:15	38.5	38.5	38.5	87	35.0	3	9	270	0.00	30.002 
21:20	38.5	38.5	38.5	85	34.4	3	9	248	0.00	30.002 
21:25	38.5	38.5	38.5	83	33.8	3	7	270	0.00	30.002 
21:30	38.6	35.7	38.6	80	33.0	4	11	270	0.00	30.003 
21:35	38.8	38.8	38.8	79	32.9	3	6	270	0.00	30.003 
21:40	38.8	38.8	38.8	77	32.2	3	10	270	0.00	30.003 
21:45	38.8	38.8	38.8	77	32.2	3	7	270	0.00	30.001 
21:50	38.8	38.8	38.8	77	32.2	3	12	270	0.00	30.001 
21:55	38.8	38.8	38.8	77	32.2	3	11	248	0.00	30.001 
22:00	38.8	38.8	38.8	77	32.2	3	9	270	0.00	30.003 
22:05	38.6	38.6	38.6	78	32.3	3	7	248	0.00	30.003 
22:10	38.6	38.6	38.6	78	32.3	3	7	248	0.00	30.003 
22:15	38.6	38.6	38.6	78	32.3	2	9	248	0.00	30.002 
22:20	38.6	38.6	38.6	78	32.3	3	7	248	0.00	30.002 
22:25	38.6	38.6	38.6	78	32.3	3	9	248	0.00	30.002 
22:30	38.5	38.5	38.5	78	32.2	2	5	270	0.00	30.001 
22:35	38.5	38.5	38.5	78	32.2	2	6	270	0.00	30.001 
22:40	38.5	38.5	38.5	78	32.2	3	11	270	0.00	30.001 
22:45	38.6	35.7	38.6	79	32.7	4	9	248	0.00	30.001 
22:50	38.6	38.6	38.6	79	32.7	2	5	248	0.00	30.001 
22:55	38.6	35.7	38.6	79	32.7	4	11	248	0.00	30.001 
23:00	38.6	35.7	38.6	79	32.7	4	10	270	0.00	30.004 
23:05	38.6	38.6	38.6	80	33.0	3	6	248	0.00	30.004 
23:10	38.6	38.6	38.6	80	33.0	2	9	248	0.00	30.004 
23:15	38.6	38.6	38.6	80	33.0	3	9	270	0.00	30.003 
23:20	38.6	38.6	38.6	81	33.3	2	5	248	0.00	30.003 
23:25	38.6	38.6	38.6	81	33.3	3	6	248	0.00	30.003 
23:30	38.8	38.8	38.8	81	33.5	3	7	248	0.00	30.005 
23:35	38.8	38.8	38.8	81	33.5	3	6	248	0.00	30.005 
23:40	38.8	38.8	38.8	81	33.5	2	7	248	0.00	30.005 
23:45	38.8	38.8	38.8	81	33.5	3	7	248	0.00	30.003 
23:50	38.8	38.8	38.8	81	33.5	3	6	248	0.00	30.003 
23:55	38.8	38.8	38.8	82	33.8	2	6	248	0.00	30.003 

CoCoRaHS
IN-AL-39
A2 Web Hosting
Creative Commons License
GoDaddy
Look for:

loaded 2017-12-12 07:09:22 • last modified 2010-11-18 10:43:29
Privacy PolicyDisclaimer
• wx.awcolley.com is powered by PmWiki v.2002016 •
• all content (unless otherwise noted) © 2017 A W Colley